createdAt,value
2016-12-27T00:00:46.170Z,0
2016-12-27T00:01:57.353Z,0
2016-12-27T00:03:08.528Z,0
2016-12-27T00:04:19.508Z,0
2016-12-27T00:05:30.482Z,0
2016-12-27T00:06:41.808Z,0
2016-12-27T00:07:52.793Z,0
2016-12-27T00:09:03.777Z,0
2016-12-27T00:10:14.759Z,0
2016-12-27T00:11:25.744Z,0
2016-12-27T00:12:36.778Z,0
2016-12-27T00:13:47.768Z,0
2016-12-27T00:14:58.752Z,0
2016-12-27T00:16:09.734Z,0
2016-12-27T00:17:20.920Z,0
2016-12-27T00:18:32.048Z,0
2016-12-27T00:19:43.033Z,0
2016-12-27T00:20:54.010Z,0
2016-12-27T00:22:04.990Z,0
2016-12-27T00:23:16.181Z,0
2016-12-27T00:24:27.216Z,0
2016-12-27T00:25:38.197Z,0
2016-12-27T00:26:49.188Z,0
2016-12-27T00:28:00.173Z,0
2016-12-27T00:29:11.360Z,0
2016-12-27T00:30:22.341Z,0
2016-12-27T00:31:33.322Z,0
2016-12-27T00:32:44.309Z,0
2016-12-27T00:33:55.291Z,0
2016-12-27T00:35:06.484Z,0
2016-12-27T00:36:17.665Z,0
2016-12-27T00:37:28.646Z,0
2016-12-27T00:38:39.831Z,0
2016-12-27T00:39:51.013Z,0
2016-12-27T00:41:01.991Z,0
2016-12-27T00:42:12.972Z,0
2016-12-27T00:43:23.957Z,0
2016-12-27T00:44:34.944Z,0
2016-12-27T00:45:45.931Z,0
2016-12-27T00:46:56.925Z,0
2016-12-27T00:48:07.932Z,0
2016-12-27T00:49:18.915Z,0
2016-12-27T00:50:29.890Z,0
2016-12-27T00:51:40.875Z,0
2016-12-27T00:52:52.055Z,0
2016-12-27T00:54:03.068Z,0
2016-12-27T00:55:14.045Z,0
2016-12-27T00:56:25.030Z,0
2016-12-27T00:57:36.007Z,0
2016-12-27T00:58:46.986Z,0
2016-12-27T00:59:57.977Z,0
2016-12-27T01:01:08.964Z,0
2016-12-27T01:02:19.938Z,0
2016-12-27T01:03:30.922Z,0
2016-12-27T01:04:41.904Z,0
2016-12-27T01:05:52.937Z,0
2016-12-27T01:07:03.949Z,0
2016-12-27T01:08:14.935Z,0
2016-12-27T01:09:25.912Z,0
2016-12-27T01:10:36.892Z,0
2016-12-27T01:11:48.079Z,0
2016-12-27T01:12:59.068Z,0
2016-12-27T01:14:10.048Z,0
2016-12-27T01:15:21.079Z,0
2016-12-27T01:16:32.063Z,0
2016-12-27T01:17:43.048Z,0
2016-12-27T01:18:54.024Z,0
2016-12-27T01:20:05.063Z,0
2016-12-27T01:21:16.242Z,0
2016-12-27T01:22:27.242Z,0
2016-12-27T01:23:38.230Z,0
2016-12-27T01:24:49.618Z,0
2016-12-27T01:26:00.592Z,0
2016-12-27T01:27:11.577Z,0
2016-12-27T01:28:22.564Z,0
2016-12-27T01:29:33.550Z,0
2016-12-27T01:30:44.533Z,0
2016-12-27T01:31:55.516Z,0
2016-12-27T01:33:06.495Z,0
2016-12-27T01:34:17.470Z,0
2016-12-27T01:35:28.652Z,0
2016-12-27T01:36:39.837Z,0
2016-12-27T01:37:51.024Z,0
2016-12-27T01:39:02.207Z,0
2016-12-27T01:40:13.251Z,0
2016-12-27T01:41:24.234Z,0
2016-12-27T01:42:35.226Z,0
2016-12-27T01:43:46.196Z,0
2016-12-27T01:44:57.383Z,0
2016-12-27T01:46:08.365Z,0
2016-12-27T01:47:19.359Z,0
2016-12-27T01:48:30.331Z,0
2016-12-27T01:49:41.317Z,0
2016-12-27T01:50:52.305Z,0
2016-12-27T01:52:03.489Z,0
2016-12-27T01:53:14.480Z,0
2016-12-27T01:54:25.459Z,0
2016-12-27T01:55:36.442Z,0
2016-12-27T01:56:47.649Z,0
2016-12-27T01:57:58.830Z,0
2016-12-27T01:59:09.819Z,0
2016-12-27T02:00:20.801Z,0
2016-12-27T02:01:31.785Z,0
2016-12-27T02:02:42.759Z,0
2016-12-27T02:03:53.744Z,0
2016-12-27T02:05:04.723Z,0
2016-12-27T02:06:15.707Z,0
2016-12-27T02:07:26.714Z,0
2016-12-27T02:08:37.701Z,0
2016-12-27T02:09:48.683Z,0
2016-12-27T02:10:59.868Z,0
2016-12-27T02:12:10.847Z,0
2016-12-27T02:13:21.842Z,0
2016-12-27T02:14:33.223Z,0
2016-12-27T02:15:44.215Z,0
2016-12-27T02:16:55.198Z,0
2016-12-27T02:18:06.179Z,0
2016-12-27T02:19:17.198Z,0
2016-12-27T02:20:28.181Z,0
2016-12-27T02:21:39.371Z,0
2016-12-27T02:22:50.550Z,0
2016-12-27T02:24:01.539Z,0
2016-12-27T02:25:12.532Z,0
2016-12-27T02:26:23.517Z,0
2016-12-27T02:27:34.508Z,0
2016-12-27T02:28:45.493Z,0
2016-12-27T02:29:56.477Z,0
2016-12-27T02:31:07.665Z,0
2016-12-27T02:32:18.853Z,0
2016-12-27T02:33:29.831Z,0
2016-12-27T02:34:41.018Z,0
2016-12-27T02:35:52.005Z,0
2016-12-27T02:37:03.193Z,0
2016-12-27T02:38:14.399Z,0
2016-12-27T02:39:25.389Z,0
2016-12-27T02:40:36.370Z,0
2016-12-27T02:41:47.354Z,0
2016-12-27T02:42:58.343Z,0
2016-12-27T02:44:09.326Z,0
2016-12-27T02:45:20.304Z,0
2016-12-27T02:46:31.294Z,0
2016-12-27T02:47:42.287Z,0
2016-12-27T02:48:53.468Z,0
2016-12-27T02:50:04.457Z,0
2016-12-27T02:51:15.441Z,0
2016-12-27T02:52:26.428Z,0
2016-12-27T02:53:37.413Z,0
2016-12-27T02:54:48.401Z,0
2016-12-27T02:55:59.589Z,0
2016-12-27T02:57:10.594Z,0
2016-12-27T02:58:21.580Z,0
2016-12-27T02:59:32.558Z,0
2016-12-27T03:00:43.544Z,0
2016-12-27T03:01:54.527Z,0
2016-12-27T03:03:05.547Z,0
2016-12-27T03:04:16.725Z,0
2016-12-27T03:05:27.708Z,0
2016-12-27T03:06:38.729Z,0
2016-12-27T03:07:49.716Z,0
2016-12-27T03:09:00.726Z,0
2016-12-27T03:10:11.713Z,0
2016-12-27T03:11:22.899Z,0
2016-12-27T03:12:33.885Z,0
2016-12-27T03:13:44.862Z,0
2016-12-27T03:14:55.848Z,0
2016-12-27T03:16:06.829Z,0
2016-12-27T03:17:17.819Z,0
2016-12-27T03:18:28.803Z,0
2016-12-27T03:19:39.790Z,0
2016-12-27T03:20:50.789Z,0
2016-12-27T03:22:01.769Z,0
2016-12-27T03:23:12.750Z,0
2016-12-27T03:24:23.742Z,0
2016-12-27T03:25:34.757Z,0
2016-12-27T03:26:45.742Z,0
2016-12-27T03:27:56.735Z,0
2016-12-27T03:29:07.716Z,0
2016-12-27T03:30:18.909Z,0
2016-12-27T03:31:30.087Z,0
2016-12-27T03:32:41.069Z,0
2016-12-27T03:33:52.050Z,0
2016-12-27T03:35:03.040Z,0
2016-12-27T03:36:14.023Z,0
2016-12-27T03:37:25.009Z,0
2016-12-27T03:38:35.994Z,0
2016-12-27T03:39:46.978Z,0
2016-12-27T03:40:57.959Z,0
2016-12-27T03:42:08.944Z,0
2016-12-27T03:43:19.930Z,0
2016-12-27T03:44:30.925Z,0
2016-12-27T03:45:41.908Z,0
2016-12-27T03:46:52.889Z,0
2016-12-27T03:48:03.873Z,0
2016-12-27T03:49:14.878Z,0
2016-12-27T03:50:25.857Z,0
2016-12-27T03:51:36.869Z,0
2016-12-27T03:52:48.059Z,0
2016-12-27T03:53:59.037Z,0
2016-12-27T03:55:10.067Z,0
2016-12-27T03:56:21.048Z,0
2016-12-27T03:57:32.040Z,0
2016-12-27T03:58:43.023Z,0
2016-12-27T03:59:54.211Z,0
2016-12-27T04:01:05.216Z,0
2016-12-27T04:02:16.198Z,0
2016-12-27T04:03:27.176Z,0
2016-12-27T04:04:38.162Z,0
2016-12-27T04:05:49.145Z,0
2016-12-27T04:07:00.134Z,0
2016-12-27T04:08:11.115Z,0
2016-12-27T04:09:22.098Z,0
2016-12-27T04:10:33.286Z,0
2016-12-27T04:11:44.473Z,0
2016-12-27T04:12:55.466Z,0
2016-12-27T04:14:06.454Z,0
2016-12-27T04:15:17.443Z,0
2016-12-27T04:16:28.428Z,0
2016-12-27T04:17:39.414Z,0
2016-12-27T04:18:50.398Z,0
2016-12-27T04:20:01.388Z,0
2016-12-27T04:21:12.376Z,0
2016-12-27T04:22:23.358Z,0
2016-12-27T04:23:34.568Z,0
2016-12-27T04:24:45.751Z,0
2016-12-27T04:25:56.738Z,0
2016-12-27T04:27:07.723Z,0
2016-12-27T04:28:18.712Z,0
2016-12-27T04:29:29.742Z,0
2016-12-27T04:30:40.727Z,0
2016-12-27T04:31:51.706Z,0
2016-12-27T04:33:02.896Z,0
2016-12-27T04:34:14.090Z,0
2016-12-27T04:35:25.084Z,0
2016-12-27T04:36:36.066Z,0
2016-12-27T04:37:47.046Z,0
2016-12-27T04:38:58.032Z,0
2016-12-27T04:40:09.023Z,0
2016-12-27T04:41:20.007Z,0
2016-12-27T04:42:31.205Z,0
2016-12-27T04:43:42.191Z,0
2016-12-27T04:44:53.166Z,0
2016-12-27T04:46:04.146Z,0
2016-12-27T04:47:15.335Z,0
2016-12-27T04:48:26.328Z,0
2016-12-27T04:49:37.307Z,0
2016-12-27T04:50:48.294Z,0
2016-12-27T04:51:59.280Z,0
2016-12-27T04:53:10.273Z,0
2016-12-27T04:54:21.253Z,0
2016-12-27T04:55:32.280Z,0
2016-12-27T04:56:43.495Z,0
2016-12-27T04:57:54.488Z,0
2016-12-27T04:59:05.472Z,0
2016-12-27T05:00:16.456Z,0
2016-12-27T05:01:27.434Z,0
2016-12-27T05:02:38.410Z,0
2016-12-27T05:03:49.398Z,0
2016-12-27T05:05:00.379Z,0
2016-12-27T05:06:11.362Z,0
2016-12-27T05:07:22.372Z,0
2016-12-27T05:08:33.353Z,0
2016-12-27T05:09:44.337Z,0
2016-12-27T05:10:55.325Z,0
2016-12-27T05:12:06.502Z,0
2016-12-27T05:13:17.483Z,0
2016-12-27T05:14:28.460Z,0
2016-12-27T05:15:39.444Z,0
2016-12-27T05:16:50.420Z,0
2016-12-27T05:18:01.428Z,0
2016-12-27T05:19:12.411Z,0
2016-12-27T05:20:23.387Z,0
2016-12-27T05:21:34.367Z,0
2016-12-27T05:22:45.354Z,0
2016-12-27T05:23:56.336Z,0
2016-12-27T05:25:07.524Z,0
2016-12-27T05:26:18.507Z,0
2016-12-27T05:27:29.492Z,0
2016-12-27T05:28:40.473Z,0
2016-12-27T05:29:51.661Z,0
2016-12-27T05:31:02.656Z,0
2016-12-27T05:32:13.638Z,0
2016-12-27T05:33:24.634Z,0
2016-12-27T05:34:35.617Z,0
2016-12-27T05:35:46.602Z,0
2016-12-27T05:36:57.577Z,0
2016-12-27T05:38:08.558Z,0
2016-12-27T05:39:19.547Z,0
2016-12-27T05:40:30.534Z,0
2016-12-27T05:41:41.522Z,0
2016-12-27T05:42:52.912Z,0
2016-12-27T05:44:03.897Z,0
2016-12-27T05:45:14.881Z,0
2016-12-27T05:46:25.888Z,0
2016-12-27T05:47:36.869Z,0
2016-12-27T05:48:48.053Z,0
2016-12-27T05:49:59.050Z,0
2016-12-27T05:51:10.093Z,0
2016-12-27T05:52:21.080Z,0
2016-12-27T05:53:32.066Z,0
2016-12-27T05:54:43.045Z,0
2016-12-27T05:55:54.026Z,0
2016-12-27T05:57:05.018Z,0
2016-12-27T05:58:16.004Z,0
2016-12-27T05:59:26.986Z,0
2016-12-27T06:00:37.969Z,0
2016-12-27T06:01:48.953Z,0
2016-12-27T06:02:59.932Z,0
2016-12-27T06:04:10.917Z,0
2016-12-27T06:05:21.914Z,0
2016-12-27T06:06:32.895Z,0
2016-12-27T06:07:43.887Z,0
2016-12-27T06:08:54.869Z,0
2016-12-27T06:10:05.862Z,0
2016-12-27T06:11:16.842Z,0
2016-12-27T06:12:27.829Z,0
2016-12-27T06:13:38.816Z,0
2016-12-27T06:14:49.788Z,0
2016-12-27T06:16:01.022Z,0
2016-12-27T06:17:12.008Z,0
2016-12-27T06:18:22.998Z,0
2016-12-27T06:19:34.188Z,0
2016-12-27T06:20:45.172Z,0
2016-12-27T06:21:56.159Z,0
2016-12-27T06:23:07.144Z,0
2016-12-27T06:24:18.532Z,0
2016-12-27T06:25:29.512Z,0
2016-12-27T06:26:40.697Z,0
2016-12-27T06:27:51.885Z,0
2016-12-27T06:29:02.878Z,0
2016-12-27T06:30:14.095Z,0
2016-12-27T06:31:25.080Z,0
2016-12-27T06:32:36.263Z,0
2016-12-27T06:33:47.255Z,0
2016-12-27T06:34:58.229Z,0
2016-12-27T06:36:09.206Z,0
2016-12-27T06:37:20.192Z,0
2016-12-27T06:38:31.179Z,0
2016-12-27T06:39:42.161Z,0
2016-12-27T06:40:53.143Z,0
2016-12-27T06:42:04.336Z,0
2016-12-27T06:43:15.331Z,0
2016-12-27T06:44:26.314Z,0
2016-12-27T06:45:37.707Z,0
2016-12-27T06:46:48.701Z,0
2016-12-27T06:47:59.681Z,0
2016-12-27T06:49:10.867Z,0
2016-12-27T06:50:22.054Z,0
2016-12-27T06:51:33.047Z,0
2016-12-27T06:52:44.032Z,0
2016-12-27T06:53:55.015Z,0
2016-12-27T06:55:06.048Z,0
2016-12-27T06:56:17.025Z,0
2016-12-27T06:57:28.012Z,0
2016-12-27T06:58:38.999Z,0
2016-12-27T06:59:49.983Z,0
2016-12-27T07:01:01.027Z,0
2016-12-27T07:02:12.005Z,0
2016-12-27T07:03:22.988Z,0
2016-12-27T07:04:34.006Z,0
2016-12-27T07:05:44.983Z,0
2016-12-27T07:06:56.166Z,0
2016-12-27T07:08:07.144Z,0
2016-12-27T07:09:18.158Z,0
2016-12-27T07:10:29.153Z,0
2016-12-27T07:11:40.336Z,0
2016-12-27T07:12:51.318Z,0
2016-12-27T07:14:02.298Z,0
2016-12-27T07:15:13.325Z,0
2016-12-27T07:16:24.332Z,0
2016-12-27T07:17:35.324Z,0
2016-12-27T07:18:46.509Z,0
2016-12-27T07:19:57.493Z,0
2016-12-27T07:21:08.482Z,0
2016-12-27T07:22:19.465Z,0
2016-12-27T07:23:30.659Z,0
2016-12-27T07:24:41.639Z,0
2016-12-27T07:25:52.621Z,0
2016-12-27T07:27:03.605Z,0
2016-12-27T07:28:14.795Z,0
2016-12-27T07:29:25.783Z,0
2016-12-27T07:30:36.777Z,5
2016-12-27T07:31:47.761Z,5
2016-12-27T07:32:58.736Z,5
2016-12-27T07:34:09.719Z,5
2016-12-27T07:35:20.705Z,5
2016-12-27T07:36:31.684Z,5
2016-12-27T07:37:42.674Z,5
2016-12-27T07:38:53.858Z,5
2016-12-27T07:40:04.887Z,5
2016-12-27T07:41:15.875Z,5
2016-12-27T07:42:26.881Z,5
2016-12-27T07:43:37.861Z,5
2016-12-27T07:44:49.038Z,5
2016-12-27T07:46:00.026Z,10
2016-12-27T07:47:11.207Z,10
2016-12-27T07:48:22.391Z,10
2016-12-27T07:49:33.377Z,10
2016-12-27T07:50:44.356Z,10
2016-12-27T07:51:55.343Z,10
2016-12-27T07:53:06.358Z,10
2016-12-27T07:54:17.571Z,15
2016-12-27T07:55:28.557Z,15
2016-12-27T07:56:39.532Z,15
2016-12-27T07:57:50.513Z,15
2016-12-27T07:59:01.494Z,15
2016-12-27T08:00:12.481Z,15
2016-12-27T08:01:23.455Z,15
2016-12-27T08:02:34.461Z,15
2016-12-27T08:03:45.639Z,15
2016-12-27T08:04:56.618Z,15
2016-12-27T08:06:07.806Z,15
2016-12-27T08:07:18.787Z,20
2016-12-27T08:08:29.971Z,20
2016-12-27T08:09:40.957Z,15
2016-12-27T08:10:51.937Z,15
2016-12-27T08:12:02.922Z,15
2016-12-27T08:13:13.910Z,15
2016-12-27T08:14:24.898Z,20
2016-12-27T08:15:35.879Z,20
2016-12-27T08:16:46.857Z,20
2016-12-27T08:17:58.043Z,20
2016-12-27T08:19:09.035Z,20
2016-12-27T08:20:20.013Z,20
2016-12-27T08:21:31.008Z,25
2016-12-27T08:22:42.189Z,25
2016-12-27T08:23:53.176Z,25
2016-12-27T08:25:04.167Z,25
2016-12-27T08:26:15.151Z,30
2016-12-27T08:27:26.172Z,30
2016-12-27T08:28:37.359Z,30
2016-12-27T08:29:48.340Z,30
2016-12-27T08:30:59.318Z,35
2016-12-27T08:32:10.304Z,35
2016-12-27T08:33:21.287Z,35
2016-12-27T08:34:32.465Z,30
2016-12-27T08:35:43.659Z,35
2016-12-27T08:36:54.650Z,40
2016-12-27T08:38:05.832Z,45
2016-12-27T08:39:16.819Z,45
2016-12-27T08:40:27.808Z,50
2016-12-27T08:41:38.816Z,55
2016-12-27T08:42:49.805Z,55
2016-12-27T08:44:00.998Z,65
2016-12-27T08:45:12.037Z,75
2016-12-27T08:46:23.024Z,70
2016-12-27T08:47:34.006Z,65
2016-12-27T08:48:44.999Z,60
2016-12-27T08:49:55.981Z,55
2016-12-27T08:51:06.962Z,55
2016-12-27T08:52:17.978Z,60
2016-12-27T08:53:28.959Z,65
2016-12-27T08:54:39.951Z,70
2016-12-27T08:55:50.929Z,80
2016-12-27T08:57:01.908Z,110
2016-12-27T08:58:12.908Z,105
2016-12-27T08:59:24.096Z,85
2016-12-27T09:00:35.346Z,85
2016-12-27T09:01:46.335Z,90
2016-12-27T09:02:57.351Z,95
2016-12-27T09:04:08.541Z,100
2016-12-27T09:05:19.531Z,105
2016-12-27T09:06:30.563Z,110
2016-12-27T09:07:41.755Z,120
2016-12-27T09:08:52.743Z,115
2016-12-27T09:10:03.740Z,115
2016-12-27T09:11:14.927Z,115
2016-12-27T09:12:25.966Z,120
2016-12-27T09:13:36.950Z,130
2016-12-27T09:14:47.928Z,135
2016-12-27T09:15:58.914Z,125
2016-12-27T09:17:09.893Z,125
2016-12-27T09:18:20.935Z,120
2016-12-27T09:19:32.119Z,115
2016-12-27T09:20:43.111Z,100
2016-12-27T09:21:54.292Z,120
2016-12-27T09:23:05.288Z,90
2016-12-27T09:24:16.520Z,90
2016-12-27T09:25:27.507Z,90
2016-12-27T09:26:38.496Z,100
2016-12-27T09:27:49.478Z,110
2016-12-27T09:29:00.460Z,125
2016-12-27T09:30:11.496Z,125
2016-12-27T09:31:22.471Z,140
2016-12-27T09:32:33.461Z,170
2016-12-27T09:33:44.443Z,200
2016-12-27T09:34:55.428Z,220
2016-12-27T09:36:06.415Z,240
2016-12-27T09:37:17.395Z,345
2016-12-27T09:38:28.378Z,885
2016-12-27T09:39:39.360Z,400
2016-12-27T09:40:50.350Z,320
2016-12-27T09:42:01.361Z,335
2016-12-27T09:43:12.345Z,405
2016-12-27T09:44:23.326Z,640
2016-12-27T09:45:34.314Z,590
2016-12-27T09:46:45.306Z,1175
2016-12-27T09:47:56.294Z,960
2016-12-27T09:49:07.282Z,1185
2016-12-27T09:50:18.468Z,1270
2016-12-27T09:51:29.462Z,1335
2016-12-27T09:52:40.447Z,1375
2016-12-27T09:53:51.431Z,1380
2016-12-27T09:55:02.414Z,1430
2016-12-27T09:56:13.604Z,1480
2016-12-27T09:57:24.596Z,1455
2016-12-27T09:58:35.584Z,1400
2016-12-27T09:59:46.576Z,1345
2016-12-27T10:00:57.565Z,1395
2016-12-27T10:02:08.550Z,1445
2016-12-27T10:03:19.543Z,1435
2016-12-27T10:04:30.571Z,1470
2016-12-27T10:05:41.604Z,1455
2016-12-27T10:06:52.799Z,1445
2016-12-27T10:08:03.788Z,1460
2016-12-27T10:09:14.779Z,1415
2016-12-27T10:10:25.778Z,1440
2016-12-27T10:11:36.766Z,1505
2016-12-27T10:12:47.755Z,1510
2016-12-27T10:13:58.975Z,1500
2016-12-27T10:15:10.016Z,1500
2016-12-27T10:16:21.000Z,1520
2016-12-27T10:17:31.989Z,1455
2016-12-27T10:18:43.009Z,1435
2016-12-27T10:19:54.202Z,1400
2016-12-27T10:21:05.197Z,1435
2016-12-27T10:22:16.189Z,1475
2016-12-27T10:23:27.178Z,1485
2016-12-27T10:24:38.173Z,1440
2016-12-27T10:25:49.169Z,1435
2016-12-27T10:27:00.166Z,1420
2016-12-27T10:28:11.150Z,1410
2016-12-27T10:29:22.151Z,1485
2016-12-27T10:30:33.154Z,1500
2016-12-27T10:31:44.156Z,1475
2016-12-27T10:32:55.140Z,1430
2016-12-27T10:34:06.130Z,1425
2016-12-27T10:35:17.131Z,1440
2016-12-27T10:36:28.132Z,1420
2016-12-27T10:37:39.130Z,1445
2016-12-27T10:38:50.130Z,1475
2016-12-27T10:40:01.126Z,1480
2016-12-27T10:41:12.178Z,1485
2016-12-27T10:42:23.168Z,1485
2016-12-27T10:43:34.159Z,1465
2016-12-27T10:44:45.154Z,1435
2016-12-27T10:45:56.151Z,1455
2016-12-27T10:47:07.151Z,1500
2016-12-27T10:48:18.144Z,1435
2016-12-27T10:49:29.339Z,1315
2016-12-27T10:50:40.382Z,1410
2016-12-27T10:51:51.375Z,1405
2016-12-27T10:53:02.372Z,1400
2016-12-27T10:54:13.367Z,1425
2016-12-27T10:55:24.361Z,1345
2016-12-27T10:56:35.355Z,1355
2016-12-27T10:57:46.348Z,1340
2016-12-27T10:58:57.540Z,1330
2016-12-27T11:00:08.538Z,1335
2016-12-27T11:01:19.737Z,1335
2016-12-27T11:02:30.932Z,1365
2016-12-27T11:03:41.931Z,1405
2016-12-27T11:04:52.928Z,1390
2016-12-27T11:06:04.000Z,1310
2016-12-27T11:07:15.194Z,1235
2016-12-27T11:08:26.187Z,1310
2016-12-27T11:09:37.184Z,1360
2016-12-27T11:10:48.383Z,1390
2016-12-27T11:11:59.376Z,1225
2016-12-27T11:13:10.374Z,1190
2016-12-27T11:14:21.566Z,1175
2016-12-27T11:15:32.560Z,1140
2016-12-27T11:16:43.557Z,995
2016-12-27T11:17:54.547Z,955
2016-12-27T11:19:05.537Z,1015
2016-12-27T11:20:16.529Z,805
2016-12-27T11:21:27.531Z,735
2016-12-27T11:22:38.515Z,845
2016-12-27T11:23:49.513Z,890
2016-12-27T11:25:00.512Z,850
2016-12-27T11:26:11.509Z,815
2016-12-27T11:27:22.527Z,760
2016-12-27T11:28:33.516Z,600
2016-12-27T11:29:44.703Z,735
2016-12-27T11:30:55.755Z,505
2016-12-27T11:32:06.744Z,575
2016-12-27T11:33:17.749Z,565
2016-12-27T11:34:28.743Z,565
2016-12-27T11:35:39.731Z,345
2016-12-27T11:36:50.766Z,355
2016-12-27T11:38:01.787Z,700
2016-12-27T11:39:12.778Z,895
2016-12-27T11:40:23.800Z,810
2016-12-27T11:41:34.802Z,865
2016-12-27T11:42:45.849Z,845
2016-12-27T11:43:57.037Z,775
2016-12-27T11:45:08.022Z,870
2016-12-27T11:46:19.023Z,905
2016-12-27T11:47:30.022Z,1105
2016-12-27T11:48:41.260Z,930
2016-12-27T11:49:52.249Z,955
2016-12-27T11:51:03.242Z,750
2016-12-27T11:52:14.232Z,705
2016-12-27T11:53:25.421Z,635
2016-12-27T11:54:36.463Z,525
2016-12-27T11:55:47.665Z,655
2016-12-27T11:56:58.861Z,1035
2016-12-27T11:58:10.062Z,950
2016-12-27T11:59:21.264Z,915
2016-12-27T12:00:32.260Z,730
2016-12-27T12:01:43.486Z,805
2016-12-27T12:02:54.688Z,905
2016-12-27T12:04:05.684Z,915
2016-12-27T12:05:16.688Z,835
2016-12-27T12:06:27.685Z,805
2016-12-27T12:07:38.677Z,775
2016-12-27T12:08:49.666Z,880
2016-12-27T12:10:00.654Z,875
2016-12-27T12:11:11.646Z,800
2016-12-27T12:12:22.631Z,785
2016-12-27T12:13:33.644Z,775
2016-12-27T12:14:44.637Z,495
2016-12-27T12:15:55.636Z,395
2016-12-27T12:17:06.833Z,325
2016-12-27T12:18:18.036Z,280
2016-12-27T12:19:29.027Z,270
2016-12-27T12:20:40.010Z,330
2016-12-27T12:21:51.204Z,460
2016-12-27T12:23:02.205Z,365
2016-12-27T12:24:13.397Z,280
2016-12-27T12:25:24.438Z,275
2016-12-27T12:26:35.439Z,310
2016-12-27T12:27:46.429Z,540
2016-12-27T12:28:57.622Z,650
2016-12-27T12:30:08.821Z,660
2016-12-27T12:31:20.061Z,545
2016-12-27T12:32:31.051Z,575
2016-12-27T12:33:42.445Z,675
2016-12-27T12:34:53.640Z,650
2016-12-27T12:36:04.626Z,670
2016-12-27T12:37:15.671Z,670
2016-12-27T12:38:26.669Z,645
2016-12-27T12:39:37.659Z,615
2016-12-27T12:40:48.848Z,625
2016-12-27T12:42:00.037Z,545
2016-12-27T12:43:11.077Z,660
2016-12-27T12:44:22.072Z,625
2016-12-27T12:45:33.063Z,595
2016-12-27T12:46:44.064Z,600
2016-12-27T12:47:55.055Z,570
2016-12-27T12:49:06.294Z,555
2016-12-27T12:50:17.292Z,490
2016-12-27T12:51:28.284Z,560
2016-12-27T12:52:39.289Z,550
2016-12-27T12:53:50.474Z,540
2016-12-27T12:55:01.712Z,545
2016-12-27T12:56:12.706Z,445
2016-12-27T12:57:23.700Z,520
2016-12-27T12:58:34.689Z,480
2016-12-27T12:59:45.669Z,495
2016-12-27T13:00:56.913Z,475
2016-12-27T13:02:07.903Z,465
2016-12-27T13:03:18.899Z,400
2016-12-27T13:04:29.881Z,415
2016-12-27T13:05:40.871Z,385
2016-12-27T13:06:51.853Z,415
2016-12-27T13:08:02.843Z,360
2016-12-27T13:09:13.843Z,265
2016-12-27T13:10:24.830Z,405
2016-12-27T13:11:35.830Z,445
2016-12-27T13:12:46.812Z,290
2016-12-27T13:13:57.800Z,255
2016-12-27T13:15:08.797Z,240
2016-12-27T13:16:19.786Z,225
2016-12-27T13:17:31.005Z,170
2016-12-27T13:18:42.196Z,155
2016-12-27T13:19:53.181Z,125
2016-12-27T13:21:04.165Z,110
2016-12-27T13:22:15.358Z,105
2016-12-27T13:23:26.344Z,110
2016-12-27T13:24:37.332Z,115
2016-12-27T13:25:48.319Z,105
2016-12-27T13:26:59.300Z,90
2016-12-27T13:28:10.286Z,85
2016-12-27T13:29:21.273Z,85
2016-12-27T13:30:32.261Z,90
2016-12-27T13:31:43.247Z,100
2016-12-27T13:32:54.232Z,85
2016-12-27T13:34:05.416Z,95
2016-12-27T13:35:16.405Z,90
2016-12-27T13:36:27.396Z,90
2016-12-27T13:37:38.385Z,95
2016-12-27T13:38:49.374Z,95
2016-12-27T13:40:00.357Z,85
2016-12-27T13:41:11.548Z,80
2016-12-27T13:42:22.540Z,80
2016-12-27T13:43:33.532Z,70
2016-12-27T13:44:44.521Z,65
2016-12-27T13:45:55.516Z,65
2016-12-27T13:47:06.509Z,60
2016-12-27T13:48:17.706Z,60
2016-12-27T13:49:28.695Z,70
2016-12-27T13:50:39.743Z,65
2016-12-27T13:51:50.732Z,60
2016-12-27T13:53:01.721Z,60
2016-12-27T13:54:12.713Z,55
2016-12-27T13:55:23.709Z,50
2016-12-27T13:56:35.091Z,45
2016-12-27T13:57:46.082Z,50
2016-12-27T13:58:57.096Z,55
2016-12-27T14:00:08.091Z,65
2016-12-27T14:01:19.277Z,75
2016-12-27T14:02:30.279Z,65
2016-12-27T14:03:41.266Z,55
2016-12-27T14:04:52.454Z,50
2016-12-27T14:06:03.438Z,50
2016-12-27T14:07:14.637Z,50
2016-12-27T14:08:25.633Z,60
2016-12-27T14:09:36.620Z,60
2016-12-27T14:10:47.615Z,75
2016-12-27T14:11:58.608Z,85
2016-12-27T14:13:09.597Z,85
2016-12-27T14:14:20.583Z,90
2016-12-27T14:15:31.770Z,100
2016-12-27T14:16:42.766Z,100
2016-12-27T14:17:53.755Z,100
2016-12-27T14:19:05.146Z,95
2016-12-27T14:20:16.129Z,110
2016-12-27T14:21:27.309Z,110
2016-12-27T14:22:38.295Z,100
2016-12-27T14:23:49.289Z,85
2016-12-27T14:25:00.478Z,70
2016-12-27T14:26:11.467Z,65
2016-12-27T14:27:22.449Z,55
2016-12-27T14:28:33.433Z,50
2016-12-27T14:29:44.415Z,45
2016-12-27T14:30:55.401Z,40
2016-12-27T14:32:06.383Z,40
2016-12-27T14:33:17.366Z,35
2016-12-27T14:34:28.350Z,35
2016-12-27T14:35:39.341Z,30
2016-12-27T14:36:50.534Z,30
2016-12-27T14:38:01.530Z,35
2016-12-27T14:39:12.529Z,30
2016-12-27T14:40:23.513Z,30
2016-12-27T14:41:34.502Z,30
2016-12-27T14:42:45.473Z,30
2016-12-27T14:43:56.466Z,30
2016-12-27T14:45:07.456Z,25
2016-12-27T14:46:18.439Z,20
2016-12-27T14:47:29.465Z,20
2016-12-27T14:48:40.444Z,20
2016-12-27T14:49:51.426Z,20
2016-12-27T14:51:02.411Z,20
2016-12-27T14:52:13.431Z,20
2016-12-27T14:53:24.420Z,20
2016-12-27T14:54:35.813Z,20
2016-12-27T14:55:46.995Z,20
2016-12-27T14:56:57.983Z,20
2016-12-27T14:58:08.979Z,20
2016-12-27T14:59:19.998Z,20
2016-12-27T15:00:30.989Z,20
2016-12-27T15:01:41.976Z,15
2016-12-27T15:02:52.956Z,15
2016-12-27T15:04:03.958Z,15
2016-12-27T15:05:14.943Z,15
2016-12-27T15:06:25.918Z,15
2016-12-27T15:07:36.931Z,15
2016-12-27T15:08:47.915Z,10
2016-12-27T15:09:58.898Z,10
2016-12-27T15:11:09.938Z,10
2016-12-27T15:12:20.934Z,10
2016-12-27T15:13:31.909Z,10
2016-12-27T15:14:42.898Z,5
2016-12-27T15:15:53.880Z,5
2016-12-27T15:17:05.074Z,5
2016-12-27T15:18:16.063Z,5
2016-12-27T15:19:27.053Z,5
2016-12-27T15:20:38.078Z,5
2016-12-27T15:21:49.051Z,5
2016-12-27T15:23:00.233Z,0
2016-12-27T15:24:11.222Z,0
2016-12-27T15:25:22.616Z,0
2016-12-27T15:26:33.603Z,0
2016-12-27T15:27:44.787Z,0
2016-12-27T15:28:55.774Z,0
2016-12-27T15:30:07.022Z,0
2016-12-27T15:31:18.038Z,0
2016-12-27T15:32:29.020Z,0
2016-12-27T15:33:40.209Z,0
2016-12-27T15:34:51.406Z,0
2016-12-27T15:36:02.396Z,0
2016-12-27T15:37:13.382Z,0
2016-12-27T15:38:24.377Z,0
2016-12-27T15:39:35.360Z,0
2016-12-27T15:40:46.353Z,0
2016-12-27T15:41:57.539Z,0
2016-12-27T15:43:08.721Z,0
2016-12-27T15:44:19.714Z,0
2016-12-27T15:45:30.704Z,0
2016-12-27T15:46:41.685Z,0
2016-12-27T15:47:52.683Z,0
2016-12-27T15:49:03.869Z,0
2016-12-27T15:50:14.905Z,0
2016-12-27T15:51:25.895Z,0
2016-12-27T15:52:36.884Z,0
2016-12-27T15:53:47.882Z,0
2016-12-27T15:54:58.881Z,0
2016-12-27T15:56:09.865Z,0
2016-12-27T15:57:20.858Z,0
2016-12-27T15:58:31.842Z,0
2016-12-27T15:59:43.027Z,0
2016-12-27T16:00:54.218Z,0
2016-12-27T16:02:05.402Z,0
2016-12-27T16:03:16.393Z,0
2016-12-27T16:04:27.382Z,0
2016-12-27T16:05:38.620Z,0
2016-12-27T16:06:49.833Z,0
2016-12-27T16:08:00.825Z,0
2016-12-27T16:09:12.010Z,0
2016-12-27T16:10:23.050Z,0
2016-12-27T16:11:34.045Z,0
2016-12-27T16:12:45.037Z,0
2016-12-27T16:13:56.023Z,0
2016-12-27T16:15:07.214Z,0
2016-12-27T16:16:18.250Z,0
2016-12-27T16:17:29.440Z,0
2016-12-27T16:18:40.434Z,0
2016-12-27T16:19:51.425Z,0
2016-12-27T16:21:02.409Z,0
2016-12-27T16:22:13.638Z,0
2016-12-27T16:23:24.626Z,0
2016-12-27T16:24:35.818Z,0
2016-12-27T16:25:46.813Z,0
2016-12-27T16:26:57.800Z,0
2016-12-27T16:28:09.141Z,0
2016-12-27T16:29:20.129Z,0
2016-12-27T16:30:31.123Z,0
2016-12-27T16:31:42.117Z,0
2016-12-27T16:32:53.120Z,0
2016-12-27T16:34:04.165Z,0
2016-12-27T16:35:15.350Z,0
2016-12-27T16:36:26.333Z,0
2016-12-27T16:37:37.320Z,0
2016-12-27T16:38:48.308Z,0
2016-12-27T16:39:59.345Z,0
2016-12-27T16:41:10.330Z,0
2016-12-27T16:42:21.322Z,0
2016-12-27T16:43:32.349Z,0
2016-12-27T16:44:43.337Z,0
2016-12-27T16:45:54.333Z,0
2016-12-27T16:47:05.312Z,0
2016-12-27T16:48:16.291Z,0
2016-12-27T16:49:27.277Z,0
2016-12-27T16:50:38.637Z,0
2016-12-27T16:51:49.629Z,0
2016-12-27T16:53:00.639Z,0
2016-12-27T16:54:11.828Z,0
2016-12-27T16:55:22.813Z,0
2016-12-27T16:56:33.967Z,0
2016-12-27T16:57:45.157Z,0
2016-12-27T16:58:56.147Z,0
2016-12-27T17:00:07.137Z,0